CheckWX is a tool to help pilots better visualize weather data.  It is not intended as a substitute for an official pre-flight weather briefing.

10:46:53 UTC

KAIO METAR
Atlantic Municipal Airport
Atlantic, Iowa, USA
Current

12 mins ago

KAIO 261035Z AUTO 04004KT 6SM BR FEW027 OVC065 02/02 A3035 RMK AO2
Observed
Mar-26 @ 10:35 UTC
Wind
  • 040° at 4 KTS
Visibility
6 SM
Flight Rules
VFR
Conditions
Mist
Cloud Levels
  • Few at 2,700' AGL
  • Overcast at 6,500' AGL
Temperature
C / 36°F
Dewpoint
C / 36°F
Humidity
100%
Altimeter
30.35" Hg
Pressure
1027.82 hPa
Previous

32 mins ago

KAIO 261015Z AUTO 00000KT 6SM BR FEW027 OVC070 02/02 A3035 RMK AO2
Observed
Mar-26 @ 10:15 UTC
Visibility
6 SM
Flight Rules
VFR
Conditions
Mist
Cloud Levels
  • Few at 2,700' AGL
  • Overcast at 7,000' AGL
Temperature
C / 36°F
Dewpoint
C / 36°F
Humidity
100%
Altimeter
30.35" Hg
Pressure
1027.82 hPa
Previous

52 mins ago

KAIO 260955Z AUTO 00000KT 7SM OVC075 02/02 A3035 RMK AO2
Observed
Mar-26 @ 09:55 UTC
Visibility
7 SM
Flight Rules
VFR
Cloud Levels
  • Overcast at 7,500' AGL
Temperature
C / 36°F
Dewpoint
C / 36°F
Humidity
100%
Altimeter
30.35" Hg
Pressure
1027.82 hPa